Time;durP1;ratioP1;P1;durP2;ratioP2;P2;SDS_P1;SDS_P2;PMS_P1;PMS_P2;Temp;Humidity;BMP_temperature;BMP_pressure;BME280_temperature;BME280_humidity;BME280_pressure;Samples;Min_cycle;Max_cycle;Signal;HPM_P1;HPM_P2
2022/10/06 00:00:48;;;;;;;11.05;8.75;;;17.60;99.90;;;;;;5054590;28;20013;-64
2022/10/06 00:03:16;;;;;;;10.32;7.25;;;17.70;99.90;;;;;;5050328;28;20543;-65
2022/10/06 00:05:44;;;;;;;11.45;8.07;;;17.80;99.90;;;;;;5047532;28;20562;-64
2022/10/06 00:08:11;;;;;;;11.52;6.75;;;17.80;99.90;;;;;;5046537;28;20032;-68
2022/10/06 00:10:39;;;;;;;11.82;8.10;;;17.90;99.90;;;;;;5040875;28;20049;-64
2022/10/06 00:13:06;;;;;;;13.50;8.27;;;18.00;99.90;;;;;;5042050;28;20025;-64
2022/10/06 00:15:34;;;;;;;12.48;7.70;;;18.20;99.90;;;;;;5057378;28;20036;-64
2022/10/06 00:18:02;;;;;;;14.50;8.07;;;18.20;99.90;;;;;;5053119;28;20063;-64
2022/10/06 00:20:29;;;;;;;14.18;7.63;;;18.20;99.90;;;;;;5049004;28;20119;-63
2022/10/06 00:22:57;;;;;;;11.30;8.27;;;18.20;99.90;;;;;;5050766;28;20106;-64
2022/10/06 00:25:27;;;;;;;14.52;8.95;;;18.20;99.90;;;;;;5054879;28;20024;-65
2022/10/06 00:27:54;;;;;;;12.07;8.80;;;18.20;99.90;;;;;;5052212;28;20031;-63
2022/10/06 00:30:25;;;;;;;10.60;8.02;;;18.20;99.90;;;;;;5061029;28;20027;-64
2022/10/06 00:32:55;;;;;;;18.58;8.25;;;18.30;99.90;;;;;;5049621;28;20032;-64
2022/10/06 00:35:24;;;;;;;13.77;8.25;;;18.30;99.90;;;;;;5057021;28;20123;-64
2022/10/06 00:37:51;;;;;;;11.52;7.70;;;18.20;99.90;;;;;;5057575;28;20033;-65
2022/10/06 00:40:19;;;;;;;12.18;8.63;;;18.20;99.90;;;;;;5051256;28;20028;-64
2022/10/06 00:43:01;;;;;;;12.65;8.48;;;18.20;99.90;;;;;;5050019;28;20043;-64
2022/10/06 00:45:45;;;;;;;10.48;7.65;;;18.20;99.90;;;;;;5051724;28;20108;-64
2022/10/06 00:48:22;;;;;;;14.60;9.10;;;18.20;99.90;;;;;;5047038;28;20108;-64
2022/10/06 00:50:53;;;;;;;13.27;8.70;;;18.10;99.90;;;;;;5037898;28;20963;-64
2022/10/06 00:53:20;;;;;;;11.82;7.90;;;18.20;99.90;;;;;;5045199;28;20037;-65
2022/10/06 00:55:48;;;;;;;10.75;7.85;;;18.20;99.90;;;;;;5047185;28;20509;-64
2022/10/06 00:58:16;;;;;;;11.50;8.30;;;18.30;99.90;;;;;;5051461;28;20099;-65
2022/10/06 01:00:45;;;;;;;11.57;7.93;;;18.40;99.90;;;;;;5054785;28;20024;-64
2022/10/06 01:03:18;;;;;;;10.02;7.93;;;18.80;99.90;;;;;;5050902;28;20025;-65
2022/10/06 01:05:49;;;;;;;10.38;7.60;;;19.20;99.90;;;;;;5054864;28;20115;-64
2022/10/06 01:08:17;;;;;;;8.45;6.38;;;19.60;99.90;;;;;;5055059;28;20504;-65
2022/10/06 01:10:44;;;;;;;13.43;6.40;;;20.10;99.90;;;;;;5051111;28;20036;-64
2022/10/06 01:13:13;;;;;;;8.85;6.15;;;20.30;98.60;;;;;;5056378;28;20051;-64
2022/10/06 01:15:49;;;;;;;8.00;5.75;;;20.40;99.10;;;;;;5060601;28;20043;-65
2022/10/06 01:18:21;;;;;;;8.27;4.97;;;20.60;98.40;;;;;;5047098;28;20041;-65
2022/10/06 01:21:08;;;;;;;9.95;4.60;;;20.60;97.80;;;;;;5037934;28;20139;-64
2022/10/06 01:23:36;;;;;;;7.65;4.43;;;20.70;97.00;;;;;;5037008;28;20063;-64
2022/10/06 01:26:07;;;;;;;6.78;3.78;;;20.60;96.90;;;;;;5045142;28;20073;-65
2022/10/06 01:28:35;;;;;;;7.55;3.50;;;20.70;97.20;;;;;;5050427;28;20086;-64
2022/10/06 01:31:03;;;;;;;5.90;3.53;;;21.00;97.40;;;;;;5052893;28;20039;-64
2022/10/06 01:33:30;;;;;;;5.97;2.83;;;21.00;96.20;;;;;;5046796;28;20029;-64
2022/10/06 01:35:58;;;;;;;7.03;3.45;;;21.20;96.70;;;;;;5042114;28;20028;-65
2022/10/06 01:38:25;;;;;;;3.42;2.80;;;21.40;95.00;;;;;;5056313;28;20513;-64
2022/10/06 01:40:53;;;;;;;5.00;2.88;;;21.60;94.70;;;;;;5051137;28;20029;-65
2022/10/06 01:43:20;;;;;;;6.03;2.80;;;21.60;94.90;;;;;;5049540;28;20037;-64
2022/10/06 01:45:57;;;;;;;5.78;2.92;;;21.40;94.00;;;;;;5051224;28;20400;-64
2022/10/06 01:48:26;;;;;;;4.55;2.30;;;21.40;94.20;;;;;;5052567;28;20028;-64
2022/10/06 01:50:54;;;;;;;5.20;2.60;;;21.40;93.90;;;;;;5064099;28;20558;-64
2022/10/06 01:53:21;;;;;;;5.18;2.83;;;21.50;94.40;;;;;;5058702;28;20477;-65
2022/10/06 01:55:49;;;;;;;5.80;2.40;;;21.60;94.30;;;;;;5042329;28;20520;-65
2022/10/06 01:58:16;;;;;;;3.35;2.13;;;21.90;94.20;;;;;;5045518;28;21546;-65
2022/10/06 02:00:43;;;;;;;3.67;2.00;;;22.00;94.00;;;;;;5050115;28;20020;-65
2022/10/06 02:03:11;;;;;;;1.88;1.50;;;22.20;92.30;;;;;;5046772;28;20036;-65
2022/10/06 02:05:38;;;;;;;2.45;1.80;;;22.10;92.40;;;;;;5050597;28;20512;-65
2022/10/06 02:08:05;;;;;;;7.80;1.85;;;22.00;92.10;;;;;;5051554;28;20036;-65
2022/10/06 02:10:32;;;;;;;4.68;2.10;;;21.90;91.30;;;;;;5046981;28;20073;-65
2022/10/06 02:13:00;;;;;;;3.22;1.67;;;22.00;92.30;;;;;;5048883;28;20474;-65
2022/10/06 02:15:27;;;;;;;5.32;1.63;;;22.00;91.80;;;;;;5046489;28;20100;-64
2022/10/06 02:17:55;;;;;;;3.05;1.58;;;21.90;91.80;;;;;;5040584;28;20079;-65
2022/10/06 02:20:22;;;;;;;3.28;1.60;;;22.00;92.00;;;;;;5045416;28;20020;-63
2022/10/06 02:22:49;;;;;;;5.70;1.88;;;22.10;90.90;;;;;;5054617;28;20032;-63
2022/10/06 02:25:17;;;;;;;5.78;1.50;;;22.30;91.20;;;;;;5054030;28;20071;-63
2022/10/06 02:27:44;;;;;;;2.95;1.60;;;22.30;91.70;;;;;;5053102;28;20035;-64
2022/10/06 02:30:13;;;;;;;1.80;1.20;;;22.40;91.30;;;;;;5051787;28;20020;-64
2022/10/06 02:32:42;;;;;;;4.38;1.60;;;22.60;90.90;;;;;;5054830;28;20036;-64
2022/10/06 02:35:11;;;;;;;3.30;1.40;;;22.70;90.70;;;;;;5059974;28;20075;-63
2022/10/06 02:37:40;;;;;;;3.45;1.63;;;22.80;89.60;;;;;;5058191;28;20032;-63
2022/10/06 02:40:08;;;;;;;3.08;1.48;;;22.90;90.70;;;;;;5068434;28;20036;-63
2022/10/06 02:42:37;;;;;;;2.13;1.25;;;23.10;90.70;;;;;;5054697;28;20059;-64
2022/10/06 02:45:06;;;;;;;2.40;1.33;;;23.00;88.50;;;;;;5066502;28;20052;-64
2022/10/06 02:47:35;;;;;;;3.13;1.90;;;23.10;89.50;;;;;;5052791;28;20029;-63
2022/10/06 02:50:05;;;;;;;2.92;1.50;;;23.20;88.30;;;;;;5053266;28;20049;-63
2022/10/06 02:52:34;;;;;;;1.90;1.67;;;23.10;86.10;;;;;;5055104;28;20044;-63
2022/10/06 02:55:03;;;;;;;3.33;1.77;;;23.10;87.50;;;;;;5055752;28;20907;-64
2022/10/06 02:57:31;;;;;;;3.25;1.38;;;23.00;87.60;;;;;;5053988;28;20112;-65
2022/10/06 02:59:58;;;;;;;4.93;1.55;;;22.80;85.80;;;;;;5055896;28;20017;-62
2022/10/06 03:02:25;;;;;;;5.18;1.75;;;22.40;88.00;;;;;;5060311;28;20428;-63
2022/10/06 03:04:52;;;;;;;3.50;1.70;;;22.60;89.90;;;;;;5053898;28;20128;-62
2022/10/06 03:07:20;;;;;;;2.22;1.10;;;22.70;90.40;;;;;;5061674;28;20461;-63
2022/10/06 03:09:47;;;;;;;2.70;1.50;;;22.80;88.70;;;;;;5060733;28;20037;-63
2022/10/06 03:12:14;;;;;;;1.48;1.02;;;22.80;87.30;;;;;;5064538;28;20671;-61
2022/10/06 03:14:41;;;;;;;2.50;1.00;;;22.80;89.80;;;;;;5059488;28;20086;-63
2022/10/06 03:17:09;;;;;;;1.55;1.20;;;22.60;89.10;;;;;;5059680;28;20115;-63
2022/10/06 03:19:37;;;;;;;4.88;0.98;;;22.60;90.20;;;;;;5062769;28;20103;-68
2022/10/06 03:22:05;;;;;;;3.45;1.25;;;22.80;86.00;;;;;;5057810;28;20364;-63
2022/10/06 03:24:32;;;;;;;3.67;1.20;;;22.80;89.30;;;;;;5053551;28;20040;-64
2022/10/06 03:26:59;;;;;;;3.33;1.30;;;23.00;86.60;;;;;;5047586;28;20136;-64
2022/10/06 03:29:29;;;;;;;1.95;0.95;;;23.20;87.20;;;;;;5044350;28;20108;-64
2022/10/06 03:31:58;;;;;;;2.25;1.20;;;23.30;87.40;;;;;;5047448;28;20162;-64
2022/10/06 03:34:25;;;;;;;5.22;1.33;;;23.30;86.00;;;;;;5050157;28;20020;-62
2022/10/06 03:36:52;;;;;;;2.80;1.50;;;23.10;86.50;;;;;;5055394;28;20029;-61
2022/10/06 03:39:19;;;;;;;2.15;1.45;;;23.20;87.60;;;;;;5051610;28;20108;-61
2022/10/06 03:41:47;;;;;;;2.35;1.25;;;23.20;84.40;;;;;;5047627;28;20025;-62
2022/10/06 03:44:14;;;;;;;3.08;1.10;;;22.90;86.90;;;;;;5049081;28;20029;-62
2022/10/06 03:46:41;;;;;;;3.75;1.40;;;22.80;89.00;;;;;;5046875;28;20027;-61
2022/10/06 03:49:09;;;;;;;2.88;1.13;;;22.60;85.50;;;;;;5071155;28;20037;-62
2022/10/06 03:51:38;;;;;;;5.13;1.85;;;22.40;86.30;;;;;;5058471;28;20036;-67
2022/10/06 03:54:11;;;;;;;1.92;1.10;;;22.30;88.10;;;;;;5050790;28;20027;-66
2022/10/06 03:56:40;;;;;;;3.05;1.00;;;22.20;87.20;;;;;;5057505;28;20028;-62
2022/10/06 03:59:10;;;;;;;2.10;1.02;;;22.20;88.00;;;;;;5055407;28;20064;-63
2022/10/06 04:01:40;;;;;;;3.28;1.30;;;22.20;88.50;;;;;;5041635;28;20036;-63
2022/10/06 04:04:08;;;;;;;2.65;1.75;;;22.30;89.70;;;;;;5059023;28;20031;-63
2022/10/06 04:06:38;;;;;;;2.47;1.00;;;21.90;86.10;;;;;;5055590;28;20033;-63
2022/10/06 04:09:08;;;;;;;1.48;0.90;;;21.80;86.60;;;;;;5052535;28;20040;-63
2022/10/06 04:11:37;;;;;;;1.30;0.75;;;21.70;89.70;;;;;;5055844;28;20500;-62
2022/10/06 04:14:07;;;;;;;1.85;1.15;;;21.70;87.50;;;;;;5048728;28;20025;-63
2022/10/06 04:16:37;;;;;;;2.30;0.90;;;21.70;88.80;;;;;;5049169;28;20029;-63
2022/10/06 04:19:08;;;;;;;2.25;1.33;;;21.70;86.80;;;;;;5056269;28;20059;-62
2022/10/06 04:21:37;;;;;;;1.55;1.02;;;21.70;88.70;;;;;;5046987;28;20025;-68
2022/10/06 04:24:06;;;;;;;2.42;0.98;;;21.70;89.40;;;;;;5050237;28;20112;-62
2022/10/06 04:26:35;;;;;;;3.63;0.95;;;21.60;90.20;;;;;;5057547;28;20037;-62
2022/10/06 04:29:03;;;;;;;2.40;0.70;;;21.40;88.30;;;;;;5051538;28;20034;-64
2022/10/06 04:31:33;;;;;;;1.38;0.90;;;21.30;90.20;;;;;;5054993;28;20021;-63
2022/10/06 04:34:01;;;;;;;1.40;0.80;;;21.40;90.30;;;;;;5047098;28;20029;-63
2022/10/06 04:36:34;;;;;;;2.55;0.90;;;21.50;90.70;;;;;;5046900;28;20547;-63
2022/10/06 04:39:03;;;;;;;2.60;0.90;;;21.40;88.90;;;;;;5045219;28;20037;-62
2022/10/06 04:41:33;;;;;;;1.77;0.80;;;21.40;90.00;;;;;;5045362;28;20029;-62
2022/10/06 04:44:01;;;;;;;2.42;1.13;;;21.50;90.70;;;;;;5049928;28;20033;-63
2022/10/06 04:46:29;;;;;;;2.03;1.17;;;21.50;89.80;;;;;;5052730;28;20163;-65
2022/10/06 04:48:57;;;;;;;2.38;1.30;;;21.50;89.90;;;;;;5059389;28;20116;-63
2022/10/06 04:51:26;;;;;;;2.30;0.88;;;21.40;89.40;;;;;;5050460;28;20755;-62
2022/10/06 04:53:54;;;;;;;2.05;0.93;;;21.40;90.30;;;;;;5056187;28;20477;-62
2022/10/06 04:56:24;;;;;;;2.75;1.23;;;21.30;90.30;;;;;;5058864;28;20033;-63
2022/10/06 04:58:53;;;;;;;3.17;1.52;;;21.40;91.00;;;;;;5054089;28;20032;-63
2022/10/06 05:01:23;;;;;;;1.85;1.30;;;21.40;90.40;;;;;;5060111;28;20037;-62
2022/10/06 05:03:52;;;;;;;2.10;1.10;;;21.50;90.50;;;;;;5051544;28;20044;-63
2022/10/06 05:06:28;;;;;;;3.65;1.77;;;21.40;90.30;;;;;;5061576;28;20021;-62
2022/10/06 05:08:58;;;;;;;3.22;2.22;;;21.40;92.20;;;;;;5063873;28;20500;-63
2022/10/06 05:11:28;;;;;;;3.58;2.47;;;21.30;93.00;;;;;;5047373;28;20466;-63
2022/10/06 05:13:57;;;;;;;3.88;2.33;;;21.30;93.10;;;;;;5052785;28;20047;-62
2022/10/06 05:16:27;;;;;;;3.72;2.35;;;21.10;93.30;;;;;;5054043;28;20029;-62
2022/10/06 05:18:54;;;;;;;2.67;2.03;;;20.90;93.40;;;;;;5057103;28;20024;-63
2022/10/06 05:21:27;;;;;;;4.07;2.13;;;20.80;93.80;;;;;;5047570;28;20017;-62
2022/10/06 05:23:54;;;;;;;3.92;2.65;;;20.60;94.00;;;;;;5050202;28;20033;-62
2022/10/06 05:26:24;;;;;;;3.22;2.10;;;20.70;94.00;;;;;;5054412;28;20017;-65
2022/10/06 05:28:52;;;;;;;2.97;2.55;;;20.50;93.90;;;;;;5054853;28;20024;-63
2022/10/06 05:31:21;;;;;;;5.25;2.25;;;20.30;94.70;;;;;;5050776;28;20607;-63
2022/10/06 05:33:48;;;;;;;3.47;2.10;;;20.20;94.60;;;;;;5062450;28;20033;-64
2022/10/06 05:36:18;;;;;;;4.93;2.78;;;20.00;94.80;;;;;;5048819;28;20120;-64
2022/10/06 05:38:46;;;;;;;3.90;2.03;;;20.00;94.80;;;;;;5055090;28;20127;-62
2022/10/06 05:41:25;;;;;;;2.80;2.35;;;19.80;94.80;;;;;;5058034;28;20078;-64
2022/10/06 05:43:53;;;;;;;2.70;2.15;;;19.70;95.20;;;;;;5050811;28;20029;-63
2022/10/06 05:46:27;;;;;;;4.43;2.75;;;19.50;95.50;;;;;;5054545;28;20021;-66
2022/10/06 05:48:56;;;;;;;5.60;3.10;;;19.40;95.90;;;;;;5047193;28;20085;-63
2022/10/06 05:51:26;;;;;;;3.92;1.50;;;19.40;95.40;;;;;;5039532;28;20029;-64
2022/10/06 05:53:53;;;;;;;2.58;1.83;;;19.30;94.30;;;;;;5053514;28;20020;-64
2022/10/06 05:56:32;;;;;;;4.10;1.83;;;19.40;93.70;;;;;;5081803;28;20170;-64
2022/10/06 05:59:00;;;;;;;4.13;1.58;;;19.60;93.60;;;;;;5064618;28;20047;-63
2022/10/06 06:01:27;;;;;;;2.33;1.67;;;19.80;94.00;;;;;;5052392;28;20049;-63
2022/10/06 06:04:01;;;;;;;3.30;2.20;;;20.00;94.00;;;;;;5059348;28;20056;-63
2022/10/06 06:06:29;;;;;;;3.80;2.30;;;20.20;94.20;;;;;;5044555;28;20466;-63
2022/10/06 06:09:08;;;;;;;3.25;2.20;;;20.20;94.30;;;;;;5053290;28;20661;-62
2022/10/06 06:11:37;;;;;;;6.20;3.50;;;20.10;94.30;;;;;;5053558;28;20025;-62
2022/10/06 06:14:12;;;;;;;2.60;2.08;;;19.70;94.60;;;;;;5046635;28;20028;-63
2022/10/06 06:16:41;;;;;;;3.28;2.05;;;19.50;94.70;;;;;;5054250;28;20093;-64
2022/10/06 06:19:10;;;;;;;3.03;1.95;;;19.30;95.10;;;;;;5051986;28;20036;-65
2022/10/06 06:21:38;;;;;;;2.60;2.17;;;19.10;95.60;;;;;;5049172;28;20044;-64
2022/10/06 06:24:06;;;;;;;2.75;2.22;;;18.90;96.10;;;;;;5047241;28;20029;-63
2022/10/06 06:26:36;;;;;;;5.22;2.30;;;18.80;96.70;;;;;;5043257;28;20025;-66
2022/10/06 06:29:05;;;;;;;6.07;2.67;;;18.70;96.80;;;;;;5058586;28;20025;-63
2022/10/06 06:31:37;;;;;;;3.60;2.20;;;18.60;96.60;;;;;;5046361;28;20398;-65
2022/10/06 06:34:06;;;;;;;3.72;2.58;;;18.50;97.10;;;;;;5057726;28;20056;-63
2022/10/06 06:36:36;;;;;;;3.65;2.20;;;18.40;97.50;;;;;;5065699;28;20024;-63
2022/10/06 06:39:06;;;;;;;3.70;2.45;;;18.40;97.80;;;;;;5060555;28;20119;-63
2022/10/06 06:41:36;;;;;;;4.13;2.30;;;18.40;97.90;;;;;;5043208;28;20406;-63
2022/10/06 06:44:06;;;;;;;3.35;2.35;;;18.40;97.80;;;;;;5048539;28;20086;-63
2022/10/06 06:46:33;;;;;;;4.70;2.70;;;18.40;98.10;;;;;;5049535;28;20025;-63
2022/10/06 06:49:04;;;;;;;4.25;2.15;;;18.40;98.40;;;;;;5048843;28;20033;-70
2022/10/06 06:51:37;;;;;;;4.35;2.58;;;18.30;98.70;;;;;;5039820;28;20029;-61
2022/10/06 06:54:05;;;;;;;5.18;3.05;;;18.30;98.60;;;;;;5050226;28;20441;-61
2022/10/06 06:56:37;;;;;;;7.20;3.40;;;18.20;98.80;;;;;;5056471;28;20078;-62
2022/10/06 06:59:07;;;;;;;3.05;2.20;;;18.20;99.30;;;;;;5041782;28;20064;-60
2022/10/06 07:01:35;;;;;;;4.55;3.08;;;18.20;99.30;;;;;;5050475;28;20025;-61
2022/10/06 07:04:03;;;;;;;3.50;2.60;;;18.20;99.10;;;;;;5050042;28;20033;-60
2022/10/06 07:06:31;;;;;;;4.30;2.70;;;18.20;99.10;;;;;;5068684;28;20094;-61
2022/10/06 07:08:59;;;;;;;4.32;2.80;;;18.20;99.40;;;;;;5068900;28;20029;-62
2022/10/06 07:11:35;;;;;;;3.60;2.88;;;18.20;99.20;;;;;;5064922;28;20086;-60
2022/10/06 07:14:06;;;;;;;4.07;2.80;;;18.20;99.30;;;;;;5048474;28;20025;-62
2022/10/06 07:25:11;;;;;;;4.18;3.10;;;18.10;99.70;;;;;;5051137;28;20501;-63
2022/10/06 07:27:51;;;;;;;5.22;3.08;;;18.00;99.80;;;;;;5051502;28;20478;-62
2022/10/06 07:30:22;;;;;;;4.18;2.60;;;18.00;99.90;;;;;;5053636;28;20064;-61
2022/10/06 07:32:51;;;;;;;5.60;3.40;;;18.00;99.90;;;;;;5050365;28;20017;-60
2022/10/06 07:35:20;;;;;;;5.40;3.63;;;17.90;99.90;;;;;;5051728;28;20474;-63
2022/10/06 07:37:48;;;;;;;5.10;3.60;;;17.90;99.90;;;;;;5051900;28;20075;-63
2022/10/06 07:40:16;;;;;;;3.30;2.80;;;17.90;99.90;;;;;;5054479;28;20029;-62
2022/10/06 07:42:52;;;;;;;3.83;3.42;;;17.80;99.90;;;;;;5049634;28;20501;-63
2022/10/06 07:45:43;;;;;;;6.15;3.35;;;17.80;99.90;;;;;;5051330;28;20100;-63
2022/10/06 07:48:18;;;;;;;5.65;3.63;;;17.70;99.90;;;;;;5051570;28;20028;-63
2022/10/06 07:50:48;;;;;;;5.03;3.10;;;17.70;99.90;;;;;;5050782;28;20033;-64
2022/10/06 07:53:17;;;;;;;5.57;3.90;;;17.60;99.90;;;;;;5058955;28;20028;-62
2022/10/06 07:55:46;;;;;;;5.20;3.92;;;17.60;99.90;;;;;;5051396;28;20035;-63
2022/10/06 07:58:25;;;;;;;5.20;3.75;;;17.50;99.90;;;;;;5049976;28;20040;-63
2022/10/06 08:00:52;;;;;;;7.63;3.72;;;17.40;99.90;;;;;;5051549;28;20024;-61
2022/10/06 08:03:20;;;;;;;5.20;3.90;;;17.30;99.90;;;;;;5051712;28;20063;-61
2022/10/06 08:05:49;;;;;;;6.30;3.50;;;17.20;99.90;;;;;;5055935;28;20039;-61
2022/10/06 08:08:18;;;;;;;6.50;4.38;;;17.10;99.90;;;;;;5050029;28;20033;-60
2022/10/06 08:10:56;;;;;;;4.95;3.88;;;17.00;99.90;;;;;;5049643;28;20127;-60
2022/10/06 08:13:24;;;;;;;7.55;3.53;;;16.90;99.90;;;;;;5051763;28;20461;-60
2022/10/06 08:15:55;;;;;;;8.05;3.22;;;16.90;99.90;;;;;;5051095;28;20032;-60
2022/10/06 08:18:24;;;;;;;8.00;4.05;;;16.90;99.90;;;;;;5052845;28;20041;-60
2022/10/06 08:20:51;;;;;;;6.68;3.35;;;16.80;99.90;;;;;;5051750;28;20017;-60
2022/10/06 08:23:18;;;;;;;6.25;3.55;;;16.80;99.90;;;;;;5050814;28;20025;-60
2022/10/06 08:25:55;;;;;;;6.38;3.72;;;16.80;99.90;;;;;;5051252;28;20112;-61
2022/10/06 08:28:23;;;;;;;6.38;3.65;;;16.70;99.90;;;;;;5051327;28;20028;-61
2022/10/06 08:30:51;;;;;;;6.28;3.70;;;16.70;99.90;;;;;;5054266;28;20029;-60
2022/10/06 08:33:19;;;;;;;7.28;3.53;;;16.60;99.90;;;;;;5050811;28;20032;-60
2022/10/06 08:35:46;;;;;;;7.28;3.78;;;16.60;99.90;;;;;;5050703;28;20083;-61
2022/10/06 08:38:14;;;;;;;7.30;3.30;;;16.60;99.90;;;;;;5051451;28;20036;-63
2022/10/06 08:40:46;;;;;;;7.35;3.53;;;16.60;99.90;;;;;;5049328;28;20397;-59
2022/10/06 08:43:18;;;;;;;6.75;3.58;;;16.60;99.90;;;;;;5050770;28;20021;-59
2022/10/06 08:45:47;;;;;;;6.07;3.65;;;16.60;99.90;;;;;;5051117;28;20036;-59
2022/10/06 08:48:20;;;;;;;10.05;4.28;;;16.60;99.90;;;;;;5049257;28;20043;-59
2022/10/06 08:51:05;;;;;;;7.90;3.60;;;16.60;99.90;;;;;;5049247;28;20055;-60
2022/10/06 08:53:50;;;;;;;8.20;4.13;;;16.60;99.90;;;;;;5050494;28;20079;-59
2022/10/06 08:56:22;;;;;;;9.60;3.85;;;16.60;99.90;;;;;;5048623;28;20048;-59
2022/10/06 08:58:57;;;;;;;9.07;5.03;;;16.60;99.90;;;;;;5050352;28;20115;-59
2022/10/06 09:01:37;;;;;;;8.02;4.50;;;16.60;99.90;;;;;;5050564;28;20048;-60
2022/10/06 09:04:06;;;;;;;8.35;4.70;;;16.70;99.90;;;;;;5050953;28;20570;-60
2022/10/06 09:06:51;;;;;;;6.45;3.78;;;16.70;99.90;;;;;;5050488;28;20498;-60
2022/10/06 09:09:40;;;;;;;8.30;3.67;;;16.70;99.90;;;;;;5050461;28;20104;-60
2022/10/06 09:12:40;;;;;;;5.22;3.38;;;16.70;99.90;;;;;;5050989;28;20036;-59
2022/10/06 09:15:26;;;;;;;6.18;3.50;;;16.60;99.90;;;;;;5056604;28;20457;-59
2022/10/06 09:18:09;;;;;;;9.00;3.70;;;16.60;99.90;;;;;;5047053;28;20116;-59
2022/10/06 09:20:56;;;;;;;6.97;3.47;;;16.50;99.90;;;;;;5050718;28;20418;-59
2022/10/06 09:26:17;;;;;;;5.63;4.13;;;16.40;99.90;;;;;;5037458;28;20112;-60
2022/10/06 09:28:46;;;;;;;6.18;4.05;;;16.40;99.90;;;;;;5030271;28;20033;-60
2022/10/06 09:31:28;;;;;;;6.95;4.72;;;16.30;99.90;;;;;;5046292;28;20071;-59
2022/10/06 09:34:24;;;;;;;9.13;4.90;;;16.30;99.90;;;;;;5049936;28;20025;-59
2022/10/06 09:37:07;;;;;;;8.57;4.70;;;16.20;99.90;;;;;;5046612;28;20045;-60
2022/10/06 09:39:37;;;;;;;12.48;4.78;;;16.10;99.90;;;;;;5058644;28;20116;-59
2022/10/06 09:42:28;;;;;;;11.43;5.03;;;16.00;99.90;;;;;;5049545;28;20056;-59
2022/10/06 09:45:04;;;;;;;8.98;4.93;;;15.90;99.90;;;;;;5048218;28;20029;-61
2022/10/06 09:47:46;;;;;;;11.30;5.32;;;15.80;99.90;;;;;;5030122;28;20120;-60
2022/10/06 09:50:26;;;;;;;17.58;7.80;;;15.80;99.90;;;;;;5040767;28;20049;-61
2022/10/06 09:52:59;;;;;;;8.00;4.70;;;15.70;99.90;;;;;;5038763;28;20029;-59
2022/10/06 09:55:37;;;;;;;12.27;5.45;;;15.60;99.90;;;;;;5048243;28;20460;-60
2022/10/06 09:58:28;;;;;;;10.95;5.28;;;15.60;99.90;;;;;;5049980;28;20028;-60
2022/10/06 10:01:05;;;;;;;15.57;6.25;;;15.60;99.90;;;;;;5041741;28;20484;-60
2022/10/06 10:03:50;;;;;;;11.07;5.32;;;15.60;99.90;;;;;;5057623;28;20068;-61
2022/10/06 10:06:33;;;;;;;13.52;6.18;;;15.60;99.90;;;;;;5066241;28;20489;-61
2022/10/06 10:09:20;;;;;;;8.65;5.50;;;15.50;99.90;;;;;;5049332;28;20111;-59
2022/10/06 10:12:24;;;;;;;13.68;6.68;;;15.50;99.90;;;;;;5049403;28;20474;-60
2022/10/06 10:14:52;;;;;;;10.93;5.50;;;15.50;99.90;;;;;;5045715;28;20028;-60
2022/10/06 10:17:31;;;;;;;17.15;6.63;;;15.40;99.90;;;;;;5057632;28;20012;-60
2022/10/06 10:20:01;;;;;;;14.68;6.68;;;15.40;99.90;;;;;;5048456;28;20036;-60
2022/10/06 10:22:40;;;;;;;15.10;6.78;;;15.30;99.90;;;;;;5044589;28;20047;-60
2022/10/06 10:25:25;;;;;;;18.88;6.68;;;15.30;99.90;;;;;;5046943;28;20108;-60
2022/10/06 10:28:16;;;;;;;14.77;7.25;;;15.30;99.90;;;;;;5047911;28;20048;-60
2022/10/06 10:30:52;;;;;;;14.98;6.32;;;15.20;99.90;;;;;;5030571;28;20059;-61
2022/10/06 10:33:41;;;;;;;12.23;7.15;;;15.10;99.90;;;;;;5040630;28;20028;-61
2022/10/06 10:36:12;;;;;;;11.80;5.93;;;15.20;99.90;;;;;;5047105;28;20071;-59
2022/10/06 10:38:41;;;;;;;16.50;6.95;;;15.10;99.90;;;;;;5060595;28;20071;-61
2022/10/06 10:41:18;;;;;;;12.40;6.43;;;15.10;99.90;;;;;;5059447;28;20025;-66
2022/10/06 10:44:06;;;;;;;10.93;6.32;;;15.10;99.90;;;;;;5052389;28;20641;-60
2022/10/06 10:46:56;;;;;;;14.18;6.90;;;15.10;99.90;;;;;;5039002;28;20029;-61
2022/10/06 10:49:31;;;;;;;14.27;6.32;;;15.10;99.90;;;;;;5040529;28;20192;-61
2022/10/06 10:52:06;;;;;;;18.33;7.25;;;15.00;99.90;;;;;;5053243;28;20033;-61
2022/10/06 10:54:52;;;;;;;8.70;5.40;;;14.90;99.90;;;;;;5040373;28;20032;-60
2022/10/06 10:57:27;;;;;;;10.25;5.70;;;14.90;99.90;;;;;;5050218;28;20033;-62
2022/10/06 11:00:07;;;;;;;11.20;5.93;;;14.90;99.90;;;;;;5049919;28;20033;-61
2022/10/06 11:02:37;;;;;;;10.88;5.82;;;14.80;99.90;;;;;;5050432;28;20025;-62
2022/10/06 11:05:29;;;;;;;11.50;5.53;;;14.70;99.90;;;;;;5050411;28;20086;-62
2022/10/06 11:08:23;;;;;;;10.30;5.72;;;14.60;99.90;;;;;;5042974;28;20060;-61
2022/10/06 11:11:01;;;;;;;12.82;6.55;;;14.60;99.90;;;;;;5054988;28;20115;-61
2022/10/06 11:13:38;;;;;;;11.15;5.40;;;14.60;99.90;;;;;;5055555;28;20040;-61
2022/10/06 11:16:27;;;;;;;17.90;5.95;;;14.50;99.90;;;;;;5055801;28;20021;-61
2022/10/06 11:19:13;;;;;;;12.20;4.88;;;14.50;99.90;;;;;;5068733;28;20512;-60
2022/10/06 11:22:09;;;;;;;8.82;4.72;;;14.40;99.90;;;;;;5052030;28;20036;-60
2022/10/06 11:24:47;;;;;;;10.60;5.10;;;14.40;99.90;;;;;;5057679;28;20029;-60
2022/10/06 11:27:17;;;;;;;12.52;4.63;;;14.40;99.90;;;;;;5040336;28;20025;-61
2022/10/06 11:29:55;;;;;;;10.23;5.68;;;14.40;99.90;;;;;;5062386;28;20029;-60
2022/10/06 11:32:51;;;;;;;10.70;4.97;;;14.30;99.90;;;;;;5051519;28;20029;-60
2022/10/06 11:35:25;;;;;;;14.20;4.97;;;14.30;99.90;;;;;;5054114;28;20441;-60
2022/10/06 11:37:59;;;;;;;;;;;14.30;99.90;;;;;;5051315;28;20091;-60
2022/10/06 11:40:48;;;;;;;13.25;4.93;;;14.30;99.90;;;;;;5070957;28;19908;-60
2022/10/06 11:43:54;;;;;;;12.60;5.28;;;14.30;99.90;;;;;;5061497;28;20021;-60
2022/10/06 11:46:39;;;;;;;12.65;5.68;;;14.30;99.90;;;;;;5065265;28;20056;-61
2022/10/06 11:49:27;;;;;;;13.07;5.80;;;14.20;99.90;;;;;;5056261;28;20127;-61
2022/10/06 11:52:17;;;;;;;13.38;6.72;;;14.30;99.90;;;;;;5062592;28;20416;-62
2022/10/06 11:54:52;;;;;;;21.35;6.60;;;14.30;99.90;;;;;;5053067;28;20044;-61
2022/10/06 11:57:22;;;;;;;;;;;14.30;99.90;;;;;;5056460;28;20032;-62
2022/10/06 11:59:51;;;;;;;16.90;7.82;;;14.40;99.90;;;;;;5062716;28;19908;-62
2022/10/06 12:02:33;;;;;;;17.05;7.38;;;14.50;99.90;;;;;;5051476;28;20021;-62
2022/10/06 12:05:17;;;;;;;16.45;7.50;;;14.60;99.90;;;;;;5059465;28;20501;-64
2022/10/06 12:07:57;;;;;;;18.05;6.63;;;14.60;99.90;;;;;;5049776;28;20037;-64
2022/10/06 12:10:28;;;;;;;15.13;6.25;;;14.50;99.90;;;;;;5048826;28;20025;-62
2022/10/06 12:13:13;;;;;;;9.98;5.18;;;14.40;99.90;;;;;;5045249;28;20108;-60
2022/10/06 12:15:44;;;;;;;16.42;5.18;;;14.20;99.90;;;;;;5070915;28;20021;-66
2022/10/06 12:18:40;;;;;;;14.52;5.55;;;14.10;99.90;;;;;;5058621;28;20131;-61
2022/10/06 12:21:29;;;;;;;14.70;5.93;;;14.00;99.90;;;;;;5045279;28;20041;-61
2022/10/06 12:24:00;;;;;;;11.38;4.30;;;13.80;99.90;;;;;;5050084;28;20033;-61
2022/10/06 12:26:37;;;;;;;15.07;5.57;;;13.80;99.90;;;;;;5053644;28;20016;-61
2022/10/06 12:29:26;;;;;;;11.82;5.38;;;13.70;99.90;;;;;;5054377;28;20375;-61
2022/10/06 12:32:32;;;;;;;19.55;7.25;;;13.60;99.90;;;;;;5044577;28;20127;-61
2022/10/06 12:35:06;;;;;;;13.20;5.13;;;13.70;99.90;;;;;;5046533;28;20083;-61
2022/10/06 12:37:51;;;;;;;19.38;6.60;;;13.70;99.90;;;;;;5066406;28;20039;-61
2022/10/06 12:40:43;;;;;;;15.30;7.13;;;13.80;99.90;;;;;;5049203;28;20033;-61
2022/10/06 12:43:27;;;;;;;17.42;6.35;;;13.90;99.90;;;;;;5046845;28;20100;-61
2022/10/06 12:46:12;;;;;;;13.73;5.72;;;14.00;99.90;;;;;;5051709;28;20029;-61
2022/10/06 12:48:50;;;;;;;16.48;6.90;;;14.10;99.90;;;;;;5056805;28;20025;-62
2022/10/06 12:51:22;;;;;;;21.65;7.35;;;14.10;99.90;;;;;;5043363;28;20123;-61
2022/10/06 12:54:19;;;;;;;21.42;6.80;;;14.30;99.90;;;;;;5050644;28;20033;-62
2022/10/06 12:57:15;;;;;;;19.23;7.00;;;14.50;99.90;;;;;;5042143;28;20414;-61
2022/10/06 12:59:42;;;;;;;16.65;6.90;;;14.60;99.90;;;;;;5054268;28;20516;-61
2022/10/06 13:02:22;;;;;;;17.85;6.90;;;14.70;99.90;;;;;;5057374;28;20033;-62
2022/10/06 13:04:56;;;;;;;20.35;6.35;;;14.70;99.90;;;;;;5062622;28;20032;-61
2022/10/06 13:07:29;;;;;;;15.38;6.95;;;14.80;99.90;;;;;;5059954;28;20017;-61
2022/10/06 13:10:14;;;;;;;16.05;6.35;;;14.80;99.90;;;;;;5048794;28;20096;-61
2022/10/06 13:12:49;;;;;;;20.80;7.00;;;14.70;99.90;;;;;;5047952;28;20025;-61
2022/10/06 13:15:26;;;;;;;16.83;6.57;;;14.70;99.90;;;;;;5051841;28;20081;-61
2022/10/06 13:18:11;;;;;;;16.48;6.88;;;14.70;99.90;;;;;;5047270;28;20573;-61
2022/10/06 13:20:51;;;;;;;21.42;7.05;;;14.60;99.90;;;;;;5062205;28;20033;-65
2022/10/06 13:23:24;;;;;;;18.45;5.80;;;14.60;99.90;;;;;;5050671;28;20016;-61
2022/10/06 13:26:00;;;;;;;13.05;5.40;;;14.50;99.90;;;;;;5055246;28;20744;-62